Time;durP1;ratioP1;P1;durP2;ratioP2;P2;SDS_P1;SDS_P2;PMS_P1;PMS_P2;Temp;Humidity;BMP_temperature;BMP_pressure;BME280_temperature;BME280_humidity;BME280_pressure;Samples;Min_cycle;Max_cycle;Signal;HPM_P1;HPM_P2
2023/03/04 00:00:29;;;;;;;11.63;1.80;;;6.40;99.90;;;;;;5018652;28;21356;-80
2023/03/04 00:02:55;;;;;;;8.00;1.33;;;6.40;99.90;;;;;;5018708;28;20041;-79
2023/03/04 00:05:20;;;;;;;9.43;1.67;;;6.30;99.90;;;;;;5037408;28;20025;-77
2023/03/04 00:07:46;;;;;;;9.75;1.95;;;6.30;99.90;;;;;;5038757;28;20490;-79
2023/03/04 00:10:12;;;;;;;12.38;1.60;;;6.30;99.90;;;;;;5037352;28;20038;-79
2023/03/04 00:12:38;;;;;;;11.27;1.90;;;6.30;99.90;;;;;;5037094;28;20052;-78
2023/03/04 00:15:04;;;;;;;11.73;2.17;;;6.30;99.90;;;;;;5025501;28;20025;-79
2023/03/04 00:17:30;;;;;;;9.73;2.38;;;6.30;99.90;;;;;;5038287;28;20049;-77
2023/03/04 00:19:56;;;;;;;7.43;1.90;;;6.30;99.90;;;;;;5037655;28;20067;-77
2023/03/04 00:22:22;;;;;;;15.57;2.13;;;6.30;99.90;;;;;;5023787;28;20042;-78
2023/03/04 00:24:47;;;;;;;12.95;1.65;;;6.30;99.90;;;;;;5037382;28;20047;-80
2023/03/04 00:27:13;;;;;;;9.48;1.42;;;6.30;99.90;;;;;;5018499;28;20056;-79
2023/03/04 00:29:39;;;;;;;13.48;1.63;;;6.30;99.90;;;;;;5024296;28;20641;-81
2023/03/04 00:32:04;;;;;;;8.27;1.52;;;6.30;99.90;;;;;;5036946;28;20047;-79
2023/03/04 00:34:30;;;;;;;5.85;1.27;;;6.30;99.90;;;;;;5038067;28;20490;-79
2023/03/04 00:37:00;;;;;;;9.82;1.70;;;6.30;99.90;;;;;;5036578;28;20049;-77
2023/03/04 00:39:34;;;;;;;7.35;1.20;;;6.30;99.90;;;;;;5039054;28;20037;-78
2023/03/04 00:42:00;;;;;;;8.27;1.08;;;6.30;99.90;;;;;;5036750;28;20046;-79
2023/03/04 00:44:27;;;;;;;14.70;2.20;;;6.30;99.90;;;;;;5036455;28;20056;-80
2023/03/04 00:46:52;;;;;;;8.23;1.27;;;6.30;99.90;;;;;;5024305;28;20471;-79
2023/03/04 00:49:18;;;;;;;9.77;1.40;;;6.30;99.90;;;;;;5037472;28;20076;-78
2023/03/04 00:51:46;;;;;;;9.43;1.65;;;6.30;99.90;;;;;;5038147;28;20403;-78
2023/03/04 00:54:11;;;;;;;11.23;1.75;;;6.30;99.90;;;;;;5035951;28;20087;-80
2023/03/04 00:56:37;;;;;;;8.93;1.42;;;6.30;99.90;;;;;;5018891;28;20044;-79
2023/03/04 00:59:02;;;;;;;11.65;1.60;;;6.30;99.90;;;;;;5038221;28;20057;-78
2023/03/04 01:01:28;;;;;;;6.25;1.20;;;6.20;99.90;;;;;;5035931;28;20033;-77
2023/03/04 01:03:54;;;;;;;8.90;1.50;;;6.20;99.90;;;;;;5036960;28;20045;-79
2023/03/04 01:06:21;;;;;;;8.32;1.65;;;6.20;99.90;;;;;;5037724;28;20045;-78
2023/03/04 01:08:47;;;;;;;9.63;1.70;;;6.20;99.90;;;;;;5037047;28;20056;-78
2023/03/04 01:11:13;;;;;;;8.23;1.65;;;6.20;99.90;;;;;;5023498;28;20045;-79
2023/03/04 01:13:39;;;;;;;11.00;1.38;;;6.20;99.90;;;;;;5017073;28;20032;-79
2023/03/04 01:16:05;;;;;;;5.80;0.95;;;6.20;99.90;;;;;;5037299;28;20025;-79
2023/03/04 01:18:31;;;;;;;7.40;1.25;;;6.20;99.90;;;;;;5037438;28;20420;-79
2023/03/04 01:20:57;;;;;;;5.97;1.10;;;6.20;99.90;;;;;;5023478;28;20041;-78
2023/03/04 01:23:23;;;;;;;5.70;1.02;;;6.20;99.90;;;;;;5018159;28;20039;-80
2023/03/04 01:25:48;;;;;;;6.53;1.10;;;6.20;99.90;;;;;;5036397;28;20044;-78
2023/03/04 01:28:14;;;;;;;8.60;1.38;;;6.20;99.90;;;;;;5035384;28;20373;-78
2023/03/04 01:30:39;;;;;;;10.77;2.00;;;6.20;99.90;;;;;;5018268;28;20422;-76
2023/03/04 01:33:05;;;;;;;8.68;1.38;;;6.20;99.90;;;;;;5035963;28;20075;-78
2023/03/04 01:35:31;;;;;;;12.43;2.30;;;6.20;99.90;;;;;;5035645;28;20029;-78
2023/03/04 01:37:56;;;;;;;14.05;1.63;;;6.20;99.90;;;;;;5035989;28;20053;-79
2023/03/04 01:40:22;;;;;;;8.00;1.27;;;6.20;99.90;;;;;;5037883;28;20709;-78
2023/03/04 01:42:48;;;;;;;8.00;1.13;;;6.20;99.90;;;;;;5034958;28;20059;-79
2023/03/04 01:45:15;;;;;;;6.88;1.17;;;6.10;99.90;;;;;;5035833;28;20040;-77
2023/03/04 01:47:47;;;;;;;9.07;1.65;;;6.20;99.90;;;;;;5036256;28;20178;-78
2023/03/04 01:50:19;;;;;;;8.90;1.33;;;6.10;99.90;;;;;;5036659;28;20426;-79
2023/03/04 01:52:45;;;;;;;6.57;1.30;;;6.20;99.90;;;;;;5023661;28;20040;-77
2023/03/04 01:55:15;;;;;;;8.10;1.42;;;6.20;99.90;;;;;;5035220;28;20033;-79
2023/03/04 01:57:41;;;;;;;7.20;1.52;;;6.20;99.90;;;;;;5037286;28;20049;-78
2023/03/04 02:00:21;;;;;;;11.82;1.15;;;6.20;99.90;;;;;;5036510;28;20474;-79
2023/03/04 02:02:51;;;;;;;8.73;1.30;;;6.20;99.90;;;;;;5035671;28;20060;-79
2023/03/04 02:05:17;;;;;;;6.93;1.30;;;6.10;99.90;;;;;;5035484;28;20580;-78
2023/03/04 02:07:43;;;;;;;6.22;1.55;;;6.10;99.90;;;;;;5036154;28;20094;-79
2023/03/04 02:10:11;;;;;;;6.47;1.08;;;6.10;99.90;;;;;;5035173;28;20032;-78
2023/03/04 02:12:37;;;;;;;4.43;1.10;;;6.10;99.90;;;;;;5036568;28;20052;-79
2023/03/04 02:15:04;;;;;;;8.65;1.30;;;6.10;99.90;;;;;;5033953;28;20033;-78
2023/03/04 02:17:32;;;;;;;7.85;1.90;;;6.10;99.90;;;;;;5016335;28;20122;-79
2023/03/04 02:20:04;;;;;;;11.43;2.25;;;6.10;99.90;;;;;;5022668;28;20045;-79
2023/03/04 02:22:31;;;;;;;7.40;1.52;;;6.10;99.90;;;;;;5036159;28;20544;-80
2023/03/04 02:25:05;;;;;;;9.27;1.48;;;6.10;99.90;;;;;;5022010;28;20036;-80
2023/03/04 02:27:31;;;;;;;11.07;1.95;;;6.10;99.90;;;;;;5035626;28;20037;-79
2023/03/04 02:29:56;;;;;;;9.35;1.35;;;6.00;99.90;;;;;;5021449;28;20040;-78
2023/03/04 02:32:24;;;;;;;6.75;1.38;;;6.00;99.90;;;;;;5023157;28;20189;-78
2023/03/04 02:34:50;;;;;;;10.77;1.27;;;6.10;99.90;;;;;;5035584;28;20560;-77
2023/03/04 02:37:20;;;;;;;12.43;1.52;;;6.00;99.90;;;;;;5034615;28;20045;-77
2023/03/04 02:39:48;;;;;;;9.40;1.75;;;6.10;99.90;;;;;;5022997;28;20576;-78
2023/03/04 02:42:14;;;;;;;6.80;1.55;;;6.00;99.90;;;;;;5019080;28;20037;-81
2023/03/04 02:44:46;;;;;;;6.57;1.02;;;6.00;99.90;;;;;;5033605;28;20509;-80
2023/03/04 02:47:16;;;;;;;7.80;0.82;;;6.10;99.90;;;;;;5033891;28;20686;-79
2023/03/04 02:49:42;;;;;;;6.32;1.30;;;6.00;99.90;;;;;;5017491;28;20055;-80
2023/03/04 02:52:18;;;;;;;8.00;1.35;;;6.10;99.90;;;;;;5035224;28;20490;-79
2023/03/04 02:54:44;;;;;;;6.20;0.90;;;6.10;99.90;;;;;;5017859;28;20462;-79
2023/03/04 02:57:11;;;;;;;6.07;0.90;;;6.10;99.90;;;;;;5033985;28;20049;-79
2023/03/04 02:59:38;;;;;;;7.18;1.55;;;6.10;99.90;;;;;;5035513;28;20040;-77
2023/03/04 03:02:05;;;;;;;5.15;0.80;;;6.10;99.90;;;;;;5017844;28;20051;-78
2023/03/04 03:04:31;;;;;;;7.25;0.90;;;6.10;99.90;;;;;;5022382;28;20383;-78
2023/03/04 03:06:56;;;;;;;5.05;0.73;;;6.10;99.90;;;;;;5014801;28;20045;-78
2023/03/04 03:09:22;;;;;;;5.75;0.90;;;6.10;99.90;;;;;;5035058;28;20411;-80
2023/03/04 03:11:47;;;;;;;4.85;1.00;;;6.10;99.90;;;;;;5021876;28;20525;-77
2023/03/04 03:14:13;;;;;;;4.82;0.88;;;6.10;99.90;;;;;;5016989;28;20060;-80
2023/03/04 03:16:39;;;;;;;5.10;0.60;;;6.10;99.90;;;;;;5034486;28;20087;-78
2023/03/04 03:19:05;;;;;;;6.15;0.88;;;6.10;99.90;;;;;;5034907;28;20414;-79
2023/03/04 03:21:31;;;;;;;2.78;0.50;;;6.10;99.90;;;;;;5035788;28;20039;-79
2023/03/04 03:23:56;;;;;;;3.80;0.60;;;6.10;99.90;;;;;;5035339;28;20068;-79
2023/03/04 03:26:22;;;;;;;4.50;0.60;;;6.10;99.90;;;;;;5034158;28;20036;-79
2023/03/04 03:28:47;;;;;;;2.78;0.50;;;6.10;99.90;;;;;;5033923;28;20497;-80
2023/03/04 03:31:13;;;;;;;3.40;0.70;;;6.10;99.90;;;;;;5033214;28;20045;-78
2023/03/04 03:33:38;;;;;;;3.05;0.70;;;6.10;99.90;;;;;;5035510;28;20127;-78
2023/03/04 03:36:05;;;;;;;5.20;1.33;;;6.10;99.90;;;;;;5036432;28;20029;-78
2023/03/04 03:38:32;;;;;;;7.20;0.93;;;6.10;99.90;;;;;;5034476;28;20088;-79
2023/03/04 03:40:57;;;;;;;3.17;0.65;;;6.10;99.90;;;;;;5036416;28;20041;-78
2023/03/04 03:43:23;;;;;;;8.55;1.05;;;6.10;99.90;;;;;;5039498;28;20507;-79
2023/03/04 03:45:48;;;;;;;4.57;0.85;;;6.10;99.90;;;;;;5016516;28;20165;-79
2023/03/04 03:48:14;;;;;;;6.05;0.70;;;6.10;99.90;;;;;;5033119;28;20045;-79
2023/03/04 03:50:39;;;;;;;5.90;0.80;;;6.10;99.90;;;;;;5033671;28;20033;-78
2023/03/04 03:53:05;;;;;;;4.03;1.00;;;6.10;99.90;;;;;;5033260;28;20112;-79
2023/03/04 03:55:31;;;;;;;4.15;0.80;;;6.00;99.90;;;;;;5034248;28;20433;-78
2023/03/04 03:57:57;;;;;;;7.50;0.98;;;6.00;99.90;;;;;;5020546;28;20060;-79
2023/03/04 04:00:23;;;;;;;8.43;1.27;;;6.00;99.90;;;;;;5035243;28;20033;-79
2023/03/04 04:02:49;;;;;;;6.28;1.40;;;6.00;99.90;;;;;;5018373;28;20471;-79
2023/03/04 04:05:15;;;;;;;4.97;1.13;;;6.00;99.90;;;;;;5025026;28;20184;-79
2023/03/04 04:07:41;;;;;;;6.07;0.90;;;6.00;99.90;;;;;;5037724;28;20049;-78
2023/03/04 04:10:07;;;;;;;5.57;0.60;;;6.00;99.90;;;;;;5020038;28;20048;-80
2023/03/04 04:12:33;;;;;;;4.65;0.82;;;6.00;99.90;;;;;;5038040;28;20049;-78
2023/03/04 04:14:58;;;;;;;4.95;0.80;;;6.00;99.90;;;;;;5020434;28;20033;-79
2023/03/04 04:17:24;;;;;;;9.18;1.13;;;6.00;99.90;;;;;;5025815;28;20041;-79
2023/03/04 04:19:50;;;;;;;4.82;0.80;;;6.00;99.90;;;;;;5036817;28;20029;-77
2023/03/04 04:22:18;;;;;;;6.57;0.80;;;6.00;99.90;;;;;;5020826;28;20110;-78
2023/03/04 04:24:44;;;;;;;8.32;1.10;;;6.00;99.90;;;;;;5040048;28;20063;-79
2023/03/04 04:27:10;;;;;;;6.30;0.98;;;6.00;99.90;;;;;;5012973;28;20140;-81
2023/03/04 04:29:35;;;;;;;5.78;1.00;;;6.00;99.90;;;;;;5020086;28;20133;-80
2023/03/04 04:32:01;;;;;;;6.22;0.90;;;6.00;99.90;;;;;;5019706;28;20037;-79
2023/03/04 04:34:27;;;;;;;4.60;1.40;;;6.00;99.90;;;;;;5020795;28;20090;-77
2023/03/04 04:36:52;;;;;;;7.82;1.17;;;6.00;99.90;;;;;;5037358;28;20044;-79
2023/03/04 04:39:18;;;;;;;7.47;1.30;;;6.00;99.90;;;;;;5025231;28;20151;-81
2023/03/04 04:41:44;;;;;;;4.93;0.80;;;6.00;99.90;;;;;;5020272;28;20037;-80
2023/03/04 04:44:11;;;;;;;5.53;1.08;;;6.00;99.90;;;;;;5038107;28;20037;-79
2023/03/04 04:46:37;;;;;;;4.88;0.70;;;6.00;99.90;;;;;;5030045;28;20118;-79
2023/03/04 04:49:04;;;;;;;6.80;0.80;;;5.90;99.90;;;;;;5036830;28;20479;-81
2023/03/04 04:51:30;;;;;;;7.10;0.70;;;6.00;99.90;;;;;;5037920;28;20178;-78
2023/03/04 04:53:58;;;;;;;14.48;1.35;;;6.00;99.90;;;;;;5018752;28;20045;-78
2023/03/04 04:56:26;;;;;;;6.75;0.93;;;6.00;99.90;;;;;;5025570;28;20039;-78
2023/03/04 04:58:58;;;;;;;5.80;0.65;;;5.90;99.90;;;;;;5010281;28;20052;-78
2023/03/04 05:01:24;;;;;;;10.25;1.20;;;5.90;99.90;;;;;;5004027;28;20491;-78
2023/03/04 05:03:52;;;;;;;9.73;1.20;;;5.90;99.90;;;;;;5002411;28;20072;-78
2023/03/04 05:06:18;;;;;;;10.45;1.20;;;5.90;99.90;;;;;;5004589;28;20038;-79
2023/03/04 05:08:44;;;;;;;4.55;1.15;;;5.90;99.90;;;;;;5009243;28;20057;-81
2023/03/04 05:11:09;;;;;;;4.30;0.75;;;5.90;99.90;;;;;;5019038;28;20110;-80
2023/03/04 05:13:35;;;;;;;2.60;0.60;;;5.90;99.90;;;;;;5002496;28;20496;-80
2023/03/04 05:16:01;;;;;;;7.53;0.90;;;5.90;99.90;;;;;;5020177;28;20479;-80
2023/03/04 05:18:27;;;;;;;3.75;0.73;;;5.90;99.90;;;;;;5003752;28;20107;-80
2023/03/04 05:21:00;;;;;;;4.13;0.80;;;5.90;99.90;;;;;;5001754;28;20159;-80
2023/03/04 05:23:28;;;;;;;6.55;0.88;;;5.90;99.90;;;;;;5003472;28;20040;-79
2023/03/04 05:25:54;;;;;;;3.33;0.63;;;5.90;99.90;;;;;;5004484;28;20072;-79
2023/03/04 05:28:20;;;;;;;5.18;1.58;;;5.90;99.90;;;;;;5002373;28;20125;-79
2023/03/04 05:30:45;;;;;;;5.20;0.90;;;5.90;99.90;;;;;;5002584;28;20555;-78
2023/03/04 05:33:13;;;;;;;4.32;0.88;;;5.90;99.90;;;;;;5019868;28;20040;-78
2023/03/04 05:35:41;;;;;;;4.65;0.85;;;5.80;99.90;;;;;;5002824;28;20037;-78
2023/03/04 05:38:09;;;;;;;4.78;0.88;;;5.90;99.90;;;;;;5007961;28;20104;-77
2023/03/04 05:40:36;;;;;;;8.65;1.50;;;5.80;99.90;;;;;;5001037;28;20448;-79
2023/03/04 05:43:02;;;;;;;6.68;0.70;;;5.90;99.90;;;;;;5008242;28;20092;-81
2023/03/04 05:45:28;;;;;;;5.63;0.90;;;5.80;99.90;;;;;;5003888;28;20034;-78
2023/03/04 05:47:54;;;;;;;5.20;1.17;;;5.80;99.90;;;;;;5019750;28;20601;-79
2023/03/04 05:50:21;;;;;;;5.93;0.65;;;5.80;99.90;;;;;;5002044;28;20423;-78
2023/03/04 05:52:47;;;;;;;6.65;0.80;;;5.80;99.90;;;;;;5001455;28;20807;-79
2023/03/04 05:55:14;;;;;;;8.05;0.95;;;5.80;99.90;;;;;;5007827;28;20120;-78
2023/03/04 05:57:39;;;;;;;5.90;0.70;;;5.80;99.90;;;;;;5014154;28;20130;-78
2023/03/04 06:00:10;;;;;;;5.32;0.85;;;5.80;99.90;;;;;;5017052;28;20497;-77
2023/03/04 06:02:36;;;;;;;4.38;0.80;;;5.80;99.90;;;;;;5018016;28;20032;-77
2023/03/04 06:05:03;;;;;;;5.60;1.48;;;5.80;99.90;;;;;;5023983;28;20398;-78
2023/03/04 06:07:29;;;;;;;4.38;0.60;;;5.80;99.90;;;;;;5037523;28;20056;-79
2023/03/04 06:09:54;;;;;;;3.70;0.52;;;5.70;99.90;;;;;;5033678;28;20038;-78
2023/03/04 06:12:20;;;;;;;4.47;0.98;;;5.80;99.90;;;;;;5015898;28;20025;-78
2023/03/04 06:14:46;;;;;;;2.13;0.50;;;5.80;99.90;;;;;;5023284;28;20033;-78
2023/03/04 06:17:11;;;;;;;4.70;1.00;;;5.80;99.90;;;;;;5036585;28;20104;-78
2023/03/04 06:19:37;;;;;;;5.03;0.82;;;5.80;99.90;;;;;;5035428;28;20143;-80
2023/03/04 06:22:04;;;;;;;5.07;0.70;;;5.80;99.90;;;;;;5016763;28;20375;-78
2023/03/04 06:24:30;;;;;;;4.97;0.70;;;5.70;99.90;;;;;;5036541;28;20036;-79
2023/03/04 06:26:55;;;;;;;2.88;0.45;;;5.80;99.90;;;;;;5035663;28;20045;-80
2023/03/04 06:29:21;;;;;;;2.55;0.50;;;5.80;99.90;;;;;;5034812;28;20087;-79
2023/03/04 06:31:47;;;;;;;2.83;0.60;;;5.80;99.90;;;;;;5017859;28;20113;-79
2023/03/04 06:34:12;;;;;;;5.47;0.80;;;5.80;99.90;;;;;;5017045;28;20114;-78
2023/03/04 06:36:38;;;;;;;3.63;0.60;;;5.80;99.90;;;;;;5023338;28;20041;-78
2023/03/04 06:39:07;;;;;;;5.13;0.95;;;5.80;99.90;;;;;;5023750;28;20040;-79
2023/03/04 06:41:35;;;;;;;7.97;0.70;;;5.80;99.90;;;;;;5034916;28;20067;-78
2023/03/04 06:44:03;;;;;;;2.85;0.60;;;5.80;99.90;;;;;;5034938;28;20032;-80
2023/03/04 06:46:29;;;;;;;2.80;0.82;;;5.90;99.90;;;;;;5017556;28;20036;-80
2023/03/04 06:48:56;;;;;;;3.42;0.50;;;5.80;99.90;;;;;;5036627;28;20111;-80
2023/03/04 06:51:21;;;;;;;2.78;0.60;;;5.80;99.90;;;;;;5034433;28;20037;-79
2023/03/04 06:53:47;;;;;;;3.35;0.57;;;5.80;99.90;;;;;;5016040;28;20394;-79
2023/03/04 06:56:16;;;;;;;3.17;0.47;;;5.90;99.90;;;;;;5022482;28;20478;-79
2023/03/04 06:58:43;;;;;;;2.95;0.70;;;5.90;99.90;;;;;;5009520;28;20046;-80
2023/03/04 07:01:19;;;;;;;3.85;0.70;;;5.90;99.90;;;;;;5001613;28;20037;-78
2023/03/04 07:03:46;;;;;;;1.38;0.50;;;5.90;99.90;;;;;;5007160;28;20038;-79
2023/03/04 07:06:15;;;;;;;5.07;0.77;;;5.90;99.90;;;;;;5018418;28;20511;-79
2023/03/04 07:08:41;;;;;;;3.67;0.60;;;5.90;99.90;;;;;;5007435;28;20094;-80
2023/03/04 07:11:06;;;;;;;4.45;0.70;;;5.90;99.90;;;;;;5000037;28;20119;-79
2023/03/04 07:13:34;;;;;;;3.65;0.60;;;5.90;99.90;;;;;;5001963;28;20592;-79
2023/03/04 07:16:00;;;;;;;3.15;0.60;;;5.90;99.90;;;;;;5018816;28;20048;-78
2023/03/04 07:18:26;;;;;;;4.07;0.63;;;5.90;99.90;;;;;;5001611;28;20037;-80
2023/03/04 07:20:57;;;;;;;2.38;0.50;;;5.90;99.90;;;;;;5019111;28;20059;-79
2023/03/04 07:23:23;;;;;;;5.63;1.13;;;5.90;99.90;;;;;;5016911;28;20415;-80
2023/03/04 07:25:49;;;;;;;5.80;0.88;;;5.90;99.90;;;;;;5019683;28;20033;-79
2023/03/04 07:28:16;;;;;;;5.60;0.80;;;5.90;99.90;;;;;;5002396;28;20038;-79
2023/03/04 07:30:41;;;;;;;7.20;1.00;;;6.00;99.90;;;;;;5006134;28;20501;-77
2023/03/04 07:33:07;;;;;;;5.82;1.00;;;6.10;99.90;;;;;;4999635;28;20037;-79
2023/03/04 07:35:33;;;;;;;6.82;1.10;;;6.20;99.90;;;;;;5001494;28;20496;-79
2023/03/04 07:37:58;;;;;;;5.65;0.90;;;6.30;99.90;;;;;;5006370;28;20057;-78
2023/03/04 07:40:24;;;;;;;6.55;1.13;;;6.30;99.90;;;;;;5004483;28;20926;-77
2023/03/04 07:42:51;;;;;;;5.30;1.00;;;6.30;99.90;;;;;;5005641;28;20172;-77
2023/03/04 07:45:16;;;;;;;7.93;1.23;;;6.30;99.90;;;;;;5004934;28;20436;-79
2023/03/04 07:47:42;;;;;;;7.22;1.33;;;6.30;99.90;;;;;;5022517;28;20052;-79
2023/03/04 07:50:09;;;;;;;5.93;1.20;;;6.30;99.90;;;;;;5024466;28;20069;-77
2023/03/04 07:52:39;;;;;;;5.68;0.93;;;6.30;99.90;;;;;;5020396;28;20029;-77
2023/03/04 07:55:05;;;;;;;10.32;1.65;;;6.40;99.90;;;;;;5003100;28;20030;-78
2023/03/04 07:57:30;;;;;;;4.63;0.90;;;6.50;99.90;;;;;;5004384;28;20065;-79
2023/03/04 07:59:56;;;;;;;4.65;0.75;;;6.50;99.90;;;;;;5005008;28;20033;-80
2023/03/04 08:02:22;;;;;;;6.18;0.73;;;6.60;99.90;;;;;;5003975;28;20446;-77
2023/03/04 08:04:47;;;;;;;4.85;1.00;;;6.60;99.90;;;;;;5021568;28;20484;-80
2023/03/04 08:07:13;;;;;;;3.08;1.00;;;6.70;99.90;;;;;;5021830;28;20042;-81
2023/03/04 08:09:38;;;;;;;5.20;0.98;;;6.70;99.90;;;;;;5010538;28;20080;-80
2023/03/04 08:12:04;;;;;;;4.30;0.77;;;6.80;99.90;;;;;;5008625;28;20132;-80
2023/03/04 08:14:31;;;;;;;7.35;0.90;;;6.80;99.90;;;;;;5021549;28;20052;-79
2023/03/04 08:16:59;;;;;;;4.63;1.05;;;6.90;99.90;;;;;;5003716;28;20042;-79
2023/03/04 08:19:25;;;;;;;4.13;0.88;;;6.90;99.90;;;;;;5021430;28;20045;-80
2023/03/04 08:21:51;;;;;;;3.17;0.73;;;6.80;99.90;;;;;;5006680;28;20033;-80
2023/03/04 08:24:16;;;;;;;6.82;1.35;;;6.80;99.90;;;;;;5020502;28;20950;-78
2023/03/04 08:26:45;;;;;;;6.55;1.10;;;6.80;99.90;;;;;;5004980;28;20045;-82
2023/03/04 08:29:14;;;;;;;5.78;1.38;;;6.80;99.90;;;;;;5004214;28;20038;-78
2023/03/04 08:31:39;;;;;;;5.13;1.00;;;6.80;99.90;;;;;;5009409;28;20076;-79
2023/03/04 08:34:07;;;;;;;3.85;0.95;;;6.90;99.90;;;;;;5003674;28;20483;-82
2023/03/04 08:36:33;;;;;;;5.82;1.58;;;6.90;99.90;;;;;;5021859;28;20037;-81
2023/03/04 08:38:58;;;;;;;7.65;1.73;;;6.90;99.90;;;;;;5020183;28;20569;-79
2023/03/04 08:41:26;;;;;;;6.32;1.20;;;7.00;99.90;;;;;;5022709;28;20026;-79
2023/03/04 08:43:51;;;;;;;5.63;1.00;;;7.00;99.90;;;;;;5021480;28;20042;-78
2023/03/04 08:46:17;;;;;;;2.55;0.63;;;7.10;99.90;;;;;;5009253;28;20055;-79
2023/03/04 08:48:43;;;;;;;8.65;1.48;;;7.20;99.90;;;;;;5009132;28;20065;-79
2023/03/04 08:51:11;;;;;;;3.22;1.10;;;7.20;99.90;;;;;;5006543;28;20038;-78
2023/03/04 08:53:37;;;;;;;5.78;1.10;;;7.30;99.90;;;;;;5019946;28;20069;-77
2023/03/04 08:56:04;;;;;;;6.55;1.25;;;7.40;99.90;;;;;;5020596;28;20044;-78
2023/03/04 08:58:29;;;;;;;3.05;0.90;;;7.30;99.90;;;;;;5032808;28;20053;-78
2023/03/04 09:00:55;;;;;;;4.40;0.80;;;7.20;99.90;;;;;;5036106;28;20430;-78
2023/03/04 09:03:20;;;;;;;5.05;1.30;;;7.10;99.90;;;;;;5024820;28;20071;-80
2023/03/04 09:05:47;;;;;;;4.15;0.93;;;7.10;99.90;;;;;;5018042;28;20041;-78
2023/03/04 09:08:13;;;;;;;5.05;1.10;;;7.10;99.90;;;;;;5034346;28;20077;-78
2023/03/04 09:10:39;;;;;;;6.57;0.95;;;7.20;99.90;;;;;;5017246;28;20036;-78
2023/03/04 09:13:05;;;;;;;3.00;0.80;;;7.20;99.90;;;;;;5020915;28;20037;-78
2023/03/04 09:15:35;;;;;;;4.32;1.30;;;7.20;99.90;;;;;;5015729;28;20729;-78
2023/03/04 09:18:02;;;;;;;5.82;1.15;;;7.20;99.90;;;;;;5021567;28;20803;-77
2023/03/04 09:20:29;;;;;;;6.88;1.33;;;7.10;99.90;;;;;;5005264;28;21903;-77
2023/03/04 09:22:55;;;;;;;5.97;1.10;;;7.00;99.90;;;;;;5018806;28;20045;-77
2023/03/04 09:25:20;;;;;;;3.95;1.20;;;7.00;99.90;;;;;;5020200;28;20037;-77
2023/03/04 09:27:46;;;;;;;5.80;1.20;;;7.00;99.90;;;;;;5021251;28;20048;-78
2023/03/04 09:30:12;;;;;;;4.85;1.60;;;7.10;99.90;;;;;;5032910;28;20033;-77
2023/03/04 09:32:38;;;;;;;6.15;1.23;;;7.10;99.90;;;;;;5021793;28;20048;-78
2023/03/04 09:35:05;;;;;;;3.40;1.33;;;7.10;99.90;;;;;;5015218;28;20052;-79
2023/03/04 09:37:30;;;;;;;4.40;1.10;;;7.10;99.90;;;;;;5016725;28;20702;-79
2023/03/04 09:39:56;;;;;;;5.28;1.20;;;7.10;99.90;;;;;;5016326;28;20047;-77
2023/03/04 09:42:35;;;;;;;4.50;1.40;;;7.10;99.90;;;;;;5021752;28;20052;-77
2023/03/04 09:45:04;;;;;;;5.93;1.08;;;7.10;99.90;;;;;;5034640;28;20048;-79
2023/03/04 09:47:34;;;;;;;2.15;0.70;;;7.10;99.90;;;;;;5031956;28;20080;-77
2023/03/04 09:50:05;;;;;;;3.17;0.80;;;7.10;99.90;;;;;;5014879;28;20045;-78
2023/03/04 09:52:57;;;;;;;3.85;1.00;;;7.10;99.90;;;;;;5015718;28;20116;-78
2023/03/04 09:55:33;;;;;;;6.20;1.20;;;7.30;99.90;;;;;;5015925;28;20120;-78
2023/03/04 09:58:11;;;;;;;2.55;0.85;;;7.40;99.90;;;;;;5005537;28;20637;-77
2023/03/04 10:00:46;;;;;;;3.05;0.90;;;7.80;99.90;;;;;;5012134;28;20604;-78
2023/03/04 10:03:16;;;;;;;3.03;1.00;;;8.00;99.90;;;;;;4995759;28;20041;-77
2023/03/04 10:06:01;;;;;;;5.65;1.20;;;8.20;99.90;;;;;;5014418;28;20628;-78
2023/03/04 10:08:45;;;;;;;5.07;1.00;;;8.40;99.90;;;;;;4994356;28;20119;-78
2023/03/04 10:11:24;;;;;;;2.67;0.90;;;8.60;99.90;;;;;;4995031;28;20124;-77
2023/03/04 10:14:31;;;;;;;3.22;1.17;;;8.90;99.90;;;;;;5012769;28;20079;-77
2023/03/04 10:16:59;;;;;;;2.38;0.90;;;9.10;99.90;;;;;;4987541;28;20038;-77
2023/03/04 10:19:28;;;;;;;3.03;1.08;;;9.10;99.90;;;;;;4995006;28;20426;-79
2023/03/04 10:21:54;;;;;;;2.17;1.00;;;9.40;99.90;;;;;;4995809;28;20033;-78
2023/03/04 10:24:24;;;;;;;2.53;0.93;;;9.50;99.90;;;;;;5001932;28;20556;-78
2023/03/04 10:27:00;;;;;;;2.50;0.90;;;9.50;99.90;;;;;;5001091;28;20041;-80
2023/03/04 10:29:27;;;;;;;6.32;1.40;;;9.40;99.90;;;;;;5001095;28;20483;-79
2023/03/04 10:31:54;;;;;;;3.85;0.63;;;9.20;99.90;;;;;;4995107;28;20065;-78
2023/03/04 10:34:20;;;;;;;3.53;0.80;;;9.00;99.90;;;;;;5002464;28;20483;-79
2023/03/04 10:37:07;;;;;;;1.58;0.60;;;8.90;99.90;;;;;;4984991;28;20037;-79
2023/03/04 10:39:40;;;;;;;1.70;0.77;;;8.80;99.90;;;;;;5001216;28;20069;-80
2023/03/04 10:42:23;;;;;;;2.30;0.70;;;8.70;99.90;;;;;;4988939;28;20026;-78
2023/03/04 10:44:56;;;;;;;2.40;0.95;;;8.80;99.90;;;;;;5001643;28;20487;-79
2023/03/04 10:47:27;;;;;;;1.83;0.65;;;9.50;99.90;;;;;;4996323;28;20049;-78
2023/03/04 10:49:58;;;;;;;1.65;0.50;;;9.80;99.90;;;;;;4995948;28;20084;-77
2023/03/04 10:52:40;;;;;;;1.70;1.08;;;9.70;99.90;;;;;;5000607;28;20040;-77
2023/03/04 10:55:18;;;;;;;2.22;0.50;;;9.50;99.90;;;;;;5000268;28;20048;-78
2023/03/04 10:57:48;;;;;;;2.38;0.63;;;9.30;99.90;;;;;;5007995;28;20041;-77
2023/03/04 11:00:17;;;;;;;1.88;0.60;;;9.40;99.90;;;;;;5014041;28;20083;-77
2023/03/04 11:02:44;;;;;;;1.83;0.63;;;9.90;99.90;;;;;;5032092;28;20088;-76
2023/03/04 11:05:24;;;;;;;2.85;0.80;;;10.20;99.90;;;;;;5018493;28;20449;-77
2023/03/04 11:07:54;;;;;;;3.90;0.65;;;10.50;99.90;;;;;;5014205;28;20053;-78
2023/03/04 11:10:22;;;;;;;4.53;0.63;;;10.70;99.90;;;;;;5014838;28;20029;-78
2023/03/04 11:12:58;;;;;;;4.05;0.88;;;10.90;99.90;;;;;;5015162;28;20508;-77
2023/03/04 11:15:30;;;;;;;1.13;0.47;;;10.70;99.90;;;;;;5020908;28;20119;-78
2023/03/04 11:18:11;;;;;;;2.50;0.40;;;10.60;99.90;;;;;;5026094;28;20037;-77
2023/03/04 11:20:42;;;;;;;0.65;0.32;;;10.30;99.90;;;;;;5027023;28;20049;-77
2023/03/04 11:23:13;;;;;;;2.33;0.55;;;10.10;99.90;;;;;;5020576;28;20035;-75
2023/03/04 11:25:55;;;;;;;1.45;0.50;;;9.80;99.90;;;;;;5039447;28;20086;-76
2023/03/04 11:28:35;;;;;;;1.27;0.55;;;9.50;99.90;;;;;;5020571;28;20486;-75
2023/03/04 11:31:07;;;;;;;1.50;0.70;;;9.20;99.90;;;;;;5039122;28;20108;-78
2023/03/04 11:33:50;;;;;;;1.95;0.90;;;8.90;99.90;;;;;;5039367;28;20749;-76
2023/03/04 11:36:39;;;;;;;1.45;0.70;;;8.90;99.90;;;;;;5035387;28;20049;-77
2023/03/04 11:39:18;;;;;;;1.60;0.70;;;8.80;99.90;;;;;;5022605;28;20033;-78
2023/03/04 11:41:53;;;;;;;2.90;0.55;;;8.80;99.90;;;;;;5020836;28;20061;-80
2023/03/04 11:44:19;;;;;;;2.25;0.63;;;9.10;99.90;;;;;;5020948;28;20048;-78
2023/03/04 11:46:47;;;;;;;1.05;0.60;;;9.50;99.90;;;;;;5038738;28;20029;-79
2023/03/04 11:49:54;;;;;;;1.63;0.77;;;9.90;99.90;;;;;;5038169;28;20118;-78
2023/03/04 11:52:32;;;;;;;1.45;0.50;;;10.30;99.90;;;;;;4979922;28;20047;-77
2023/03/04 11:55:17;;;;;;;1.83;0.60;;;10.40;99.90;;;;;;5021760;28;20044;-80
2023/03/04 11:58:01;;;;;;;1.70;0.60;;;10.40;99.90;;;;;;5019751;28;22247;-80
2023/03/04 12:00:43;;;;;;;3.38;0.63;;;10.30;99.90;;;;;;5021487;28;20064;-78
2023/03/04 12:03:14;;;;;;;2.20;0.60;;;10.30;99.90;;;;;;5038894;28;20489;-77
2023/03/04 12:06:04;;;;;;;2.03;0.52;;;10.30;99.90;;;;;;5037434;28;20032;-80
2023/03/04 12:08:49;;;;;;;2.45;0.60;;;10.10;99.90;;;;;;5021687;28;20052;-80
2023/03/04 12:11:20;;;;;;;2.88;0.60;;;10.00;99.90;;;;;;5039000;28;20112;-75
2023/03/04 12:14:28;;;;;;;2.10;0.70;;;9.90;99.90;;;;;;5022167;28;20056;-79
2023/03/04 12:17:27;;;;;;;3.42;0.75;;;9.70;99.90;;;;;;5026391;28;20041;-80
2023/03/04 12:20:20;;;;;;;3.03;0.68;;;9.60;99.90;;;;;;5020481;28;20405;-78
2023/03/04 12:22:55;;;;;;;3.50;0.57;;;9.40;99.90;;;;;;5021559;28;20064;-80
2023/03/04 12:25:30;;;;;;;2.15;0.40;;;9.40;99.90;;;;;;5024503;28;20068;-81
2023/03/04 12:28:34;;;;;;;2.80;0.65;;;9.60;99.90;;;;;;5016046;28;20053;-78
2023/03/04 12:31:23;;;;;;;1.45;0.50;;;9.90;99.90;;;;;;5013178;28;20116;-79
2023/03/04 12:34:11;;;;;;;1.55;0.40;;;10.40;99.90;;;;;;5018464;28;20041;-78
2023/03/04 12:36:45;;;;;;;3.47;0.80;;;10.80;99.90;;;;;;5033494;28;20494;-79
2023/03/04 12:39:32;;;;;;;5.85;0.77;;;10.70;99.90;;;;;;5017239;28;20075;-79
2023/03/04 12:42:16;;;;;;;3.13;0.65;;;10.40;99.90;;;;;;5034694;28;20053;-81
2023/03/04 12:44:55;;;;;;;3.00;0.77;;;10.10;99.90;;;;;;5035593;28;20036;-76
2023/03/04 12:47:43;;;;;;;4.95;0.75;;;10.00;99.90;;;;;;5018199;28;20219;-78
2023/03/04 12:50:46;;;;;;;2.00;0.50;;;9.70;99.90;;;;;;5017371;28;20136;-78
2023/03/04 12:53:32;;;;;;;4.70;0.73;;;9.50;99.90;;;;;;5016288;28;20053;-80
2023/03/04 12:55:58;;;;;;;6.18;0.70;;;9.10;99.90;;;;;;5017198;28;20037;-78
2023/03/04 12:58:30;;;;;;;4.13;0.90;;;8.80;99.90;;;;;;5016106;28;20713;-80
2023/03/04 13:01:37;;;;;;;5.68;0.55;;;8.60;99.90;;;;;;5034946;28;20219;-82
2023/03/04 13:04:26;;;;;;;5.82;0.80;;;8.40;99.90;;;;;;4974657;28;20033;-80
2023/03/04 13:07:01;;;;;;;5.38;0.80;;;8.30;99.90;;;;;;5033660;28;20048;-79